< Typhoon 200417 2004 Season Typhoon 200419 >
Typhoon 200418 (SONGDA)
General InformationTrack Information on Google MapsDetailed Wind InformationAccess Analytics MapList of All Images || NewsDisaster Info.WeblogTrackbackTyphoon FrontResourceGoogle EarthGE AnimationAtom FeedGeoJSON
Detalied Best Track (Time Zone = UTC)
Year Month Day Hour Lat. Long. Pressure (hPa) Wind (kt) Class Image Chart
2004 8 26 06 10.5 171.0 1008 0 2 Image Chart
2004 8 26 12 10.5 170.0 1008 0 2 Image Chart
2004 8 26 18 10.6 169.3 1008 0 2 Image Chart
2004 8 27 00 10.7 168.7 1008 0 2 Image Chart
2004 8 27 06 10.8 167.8 1004 0 2 Image Chart
2004 8 27 12 11.0 167.0 1004 0 2 Image Chart
2004 8 27 18 11.1 166.0 1000 0 2 Image Chart
2004 8 28 00 11.3 165.0 998 35 3 Image Chart
2004 8 28 06 11.9 164.2 992 40 3 Image Chart
2004 8 28 12 12.4 163.1 985 50 4 Image Chart
2004 8 28 18 13.0 161.9 980 55 4 Image Chart
2004 8 29 00 13.3 160.4 980 55 4 Image Chart
2004 8 29 06 13.7 158.8 980 55 4 Image Chart
2004 8 29 12 14.0 157.4 980 55 4 Image Chart
2004 8 29 18 14.5 156.0 980 55 4 Image Chart
2004 8 30 00 14.9 154.4 975 60 4 Image Chart
2004 8 30 06 15.3 152.8 975 60 4 Image Chart
2004 8 30 12 15.5 151.5 965 65 5 Image Chart
2004 8 30 18 16.0 150.5 955 75 5 Image Chart
2004 8 31 00 16.4 149.5 940 85 5 Image Chart
2004 8 31 06 16.7 148.5 925 90 5 Image Chart
2004 8 31 12 17.3 147.7 925 90 5 Image Chart
2004 8 31 18 17.8 146.7 925 90 5 Image Chart
2004 9 1 00 18.4 146.3 925 90 5 Image Chart
2004 9 1 06 19.5 145.3 925 90 5 Image Chart
2004 9 1 12 20.2 143.7 925 90 5 Image Chart
2004 9 1 18 20.6 142.3 925 90 5 Image Chart
2004 9 2 00 21.1 141.0 925 90 5 Image Chart
2004 9 2 06 21.6 139.8 925 90 5 Image Chart
2004 9 2 12 21.8 138.5 935 85 5 Image Chart
2004 9 2 18 22.0 137.4 935 85 5 Image Chart
2004 9 3 00 22.1 136.3 935 85 5 Image Chart
2004 9 3 06 22.3 135.2 935 85 5 Image Chart
2004 9 3 12 22.5 134.0 935 85 5 Image Chart
2004 9 3 18 22.8 133.2 935 85 5 Image Chart
2004 9 4 00 23.3 132.1 935 85 5 Image Chart
2004 9 4 06 24.0 131.2 925 95 5 Image Chart
2004 9 4 12 24.4 130.5 925 95 5 Image Chart
2004 9 4 18 25.1 129.7 925 95 5 Image Chart
2004 9 4 21 25.4 129.4 925 95 5 Image Chart
2004 9 5 00 25.8 129.0 925 95 5 Image Chart
2004 9 5 03 26.1 128.5 925 95 5 Image Chart
2004 9 5 06 26.3 128.3 925 95 5 Image Chart
2004 9 5 08 26.4 128.1 925 95 5 Image Chart
2004 9 5 09 26.7 128.1 925 95 5 Image Chart
2004 9 5 12 26.9 127.9 930 90 5 Image Chart
2004 9 5 15 27.4 127.5 930 90 5 Image Chart
2004 9 5 18 27.8 127.3 930 90 5 Image Chart
2004 9 5 21 28.0 127.2 935 85 5 Image Chart
2004 9 6 00 28.4 127.1 935 85 5 Image Chart
2004 9 6 03 28.9 127.0 935 85 5 Image Chart
2004 9 6 06 29.3 127.0 940 80 5 Image Chart
2004 9 6 09 29.5 127.1 940 80 5 Image Chart
2004 9 6 12 29.9 127.3 940 80 5 Image Chart
2004 9 6 15 30.3 127.5 940 80 5 Image Chart
2004 9 6 18 31.1 128.0 945 75 5 Image Chart
2004 9 6 21 31.8 128.7 945 75 5 Image Chart
2004 9 7 00 32.7 129.6 945 75 5 Image Chart
2004 9 7 03 33.9 130.7 945 75 5 Image Chart
2004 9 7 06 35.4 132.2 950 75 5 Image Chart
2004 9 7 09 36.8 133.8 955 70 5 Image Chart
2004 9 7 12 38.7 135.9 960 65 5 Image Chart
2004 9 7 15 40.2 138.0 965 60 4 Image Chart
2004 9 7 18 41.7 139.2 970 55 4 Image Chart
2004 9 7 21 42.8 139.8 970 55 4 Image Chart
2004 9 8 00 43.8 139.7 968 0 6 Image Chart
2004 9 8 06 46.0 142.5 960 0 6 Image Chart
2004 9 8 12 48.7 146.1 968 0 6 Image Chart
2004 9 8 18 50.3 150.0 972 0 6 Image Chart
2004 9 9 00 51.6 153.9 974 0 6 Image Chart
2004 9 9 06 53.0 157.7 976 0 6 Image Chart
2004 9 9 12 53.3 162.4 978 0 6 Image Chart
2004 9 9 18 53.6 166.1 980 0 6 Image Chart
2004 9 10 00 53.7 169.0 984 0 6 Image Chart
2004 9 10 06 53.3 173.1 986 0 6 Image Chart
2004 9 10 12 53.4 177.5 988 0 6 Image Chart
2004 9 10 18 53.5 180.2 988 0 6 Image Chart
Japan Meteorological Agency Best Track Data | Correction Date : 2006-01-18
< Typhoon 200417 2004 Season Typhoon 200419 >

Help